Weather at Berlin-Tegel Otto Lilienthal Airport [CLOSED]

Public forecast

Using degrees Celsius for public forecast. Weather courtesy of forecast.io.

Closest aviation weather report (METAR) to Berlin-Tegel Otto Lilienthal Airport

Closest report is Berlin Brandenburg Airport, 14.2 nm (26.3 km) SSE.

2024/05/25 11:20 (retrieved 31 minutes ago)

EDDB 251120Z AUTO VRB03KT 9999 SCT022 BKN028 BKN033 21/15 Q1018 NOSIG

Closest aviation forecast (TAF) to Berlin-Tegel Otto Lilienthal Airport

Closest forecast is Berlin Brandenburg Airport, 14.2 nm (26.3 km) SSE.

2024/05/25 06:27 (retrieved 5 hours ago)

TAF TAF EDDB 250500Z 2506/2606 22006KT 9999 BKN006 BECMG 2506/2509 SCT015 BKN020 BECMG 2513/2516 16004KT BECMG 2600/2603 1200 BCFG TEMPO 2602/2605 0300 FG BKN001